sensor_id;sensor_type;location;lat;lon;timestamp;P1;durP1;ratioP1;P2;durP2;ratioP2
73100;SDS011;61288;53.446;-2.266;2024-03-06T00:00:48;25.25;;;8.23;;
73100;SDS011;61288;53.446;-2.266;2024-03-06T00:03:13;21.23;;;7.88;;
73100;SDS011;61288;53.446;-2.266;2024-03-06T00:05:39;23.05;;;8.25;;
73100;SDS011;61288;53.446;-2.266;2024-03-06T00:08:04;20.88;;;8.15;;
73100;SDS011;61288;53.446;-2.266;2024-03-06T00:10:30;23.58;;;7.97;;
73100;SDS011;61288;53.446;-2.266;2024-03-06T00:12:55;22.08;;;8.48;;
73100;SDS011;61288;53.446;-2.266;2024-03-06T00:15:21;22.17;;;8.20;;
73100;SDS011;61288;53.446;-2.266;2024-03-06T00:17:46;22.88;;;7.85;;
73100;SDS011;61288;53.446;-2.266;2024-03-06T00:20:12;20.15;;;7.75;;
73100;SDS011;61288;53.446;-2.266;2024-03-06T00:22:38;24.90;;;8.30;;
73100;SDS011;61288;53.446;-2.266;2024-03-06T00:25:03;19.77;;;7.35;;
73100;SDS011;61288;53.446;-2.266;2024-03-06T00:27:29;20.70;;;7.55;;
73100;SDS011;61288;53.446;-2.266;2024-03-06T00:29:55;19.88;;;7.05;;
73100;SDS011;61288;53.446;-2.266;2024-03-06T00:32:20;23.58;;;8.23;;
73100;SDS011;61288;53.446;-2.266;2024-03-06T00:34:48;22.85;;;9.25;;
73100;SDS011;61288;53.446;-2.266;2024-03-06T00:37:15;18.83;;;6.90;;
73100;SDS011;61288;53.446;-2.266;2024-03-06T00:39:40;20.65;;;7.70;;
73100;SDS011;61288;53.446;-2.266;2024-03-06T00:42:06;21.50;;;7.85;;
73100;SDS011;61288;53.446;-2.266;2024-03-06T00:44:34;20.35;;;7.57;;
73100;SDS011;61288;53.446;-2.266;2024-03-06T00:46:59;19.88;;;7.50;;
73100;SDS011;61288;53.446;-2.266;2024-03-06T00:49:25;20.85;;;7.40;;
73100;SDS011;61288;53.446;-2.266;2024-03-06T00:51:51;21.08;;;7.60;;
73100;SDS011;61288;53.446;-2.266;2024-03-06T00:54:16;22.10;;;8.57;;
73100;SDS011;61288;53.446;-2.266;2024-03-06T00:56:42;21.45;;;7.95;;
73100;SDS011;61288;53.446;-2.266;2024-03-06T00:59:07;20.85;;;8.10;;
73100;SDS011;61288;53.446;-2.266;2024-03-06T01:01:33;24.23;;;8.82;;
73100;SDS011;61288;53.446;-2.266;2024-03-06T01:03:58;29.42;;;10.30;;
73100;SDS011;61288;53.446;-2.266;2024-03-06T01:06:24;27.20;;;10.18;;
73100;SDS011;61288;53.446;-2.266;2024-03-06T01:08:50;29.52;;;10.57;;
73100;SDS011;61288;53.446;-2.266;2024-03-06T01:11:15;32.22;;;11.98;;
73100;SDS011;61288;53.446;-2.266;2024-03-06T01:13:41;33.53;;;10.88;;
73100;SDS011;61288;53.446;-2.266;2024-03-06T01:16:06;28.30;;;10.45;;
73100;SDS011;61288;53.446;-2.266;2024-03-06T01:18:32;27.70;;;11.07;;
73100;SDS011;61288;53.446;-2.266;2024-03-06T01:20:57;26.80;;;11.35;;
73100;SDS011;61288;53.446;-2.266;2024-03-06T01:23:23;34.33;;;12.73;;
73100;SDS011;61288;53.446;-2.266;2024-03-06T01:25:48;32.60;;;11.50;;
73100;SDS011;61288;53.446;-2.266;2024-03-06T01:28:14;31.60;;;11.63;;
73100;SDS011;61288;53.446;-2.266;2024-03-06T01:30:39;25.50;;;10.07;;
73100;SDS011;61288;53.446;-2.266;2024-03-06T01:33:05;29.08;;;10.48;;
73100;SDS011;61288;53.446;-2.266;2024-03-06T01:35:31;26.77;;;9.35;;
73100;SDS011;61288;53.446;-2.266;2024-03-06T01:37:59;26.10;;;10.13;;
73100;SDS011;61288;53.446;-2.266;2024-03-06T01:40:26;25.20;;;8.98;;
73100;SDS011;61288;53.446;-2.266;2024-03-06T01:42:52;25.23;;;9.63;;
73100;SDS011;61288;53.446;-2.266;2024-03-06T01:45:18;27.98;;;9.40;;
73100;SDS011;61288;53.446;-2.266;2024-03-06T01:47:45;28.58;;;10.68;;
73100;SDS011;61288;53.446;-2.266;2024-03-06T01:50:10;23.25;;;8.90;;
73100;SDS011;61288;53.446;-2.266;2024-03-06T01:52:37;25.00;;;9.25;;
73100;SDS011;61288;53.446;-2.266;2024-03-06T01:55:05;27.10;;;9.55;;
73100;SDS011;61288;53.446;-2.266;2024-03-06T01:57:32;25.80;;;10.05;;
73100;SDS011;61288;53.446;-2.266;2024-03-06T01:59:59;32.92;;;9.73;;
73100;SDS011;61288;53.446;-2.266;2024-03-06T02:02:27;25.52;;;9.50;;
73100;SDS011;61288;53.446;-2.266;2024-03-06T02:04:54;27.05;;;8.65;;
73100;SDS011;61288;53.446;-2.266;2024-03-06T02:07:20;27.63;;;10.13;;
73100;SDS011;61288;53.446;-2.266;2024-03-06T02:09:46;24.65;;;8.82;;
73100;SDS011;61288;53.446;-2.266;2024-03-06T02:12:12;28.60;;;9.50;;
73100;SDS011;61288;53.446;-2.266;2024-03-06T02:14:38;26.45;;;8.98;;
73100;SDS011;61288;53.446;-2.266;2024-03-06T02:17:07;21.25;;;8.25;;
73100;SDS011;61288;53.446;-2.266;2024-03-06T02:19:42;23.77;;;8.65;;
73100;SDS011;61288;53.446;-2.266;2024-03-06T02:22:09;26.08;;;9.10;;
73100;SDS011;61288;53.446;-2.266;2024-03-06T02:24:36;21.73;;;8.07;;
73100;SDS011;61288;53.446;-2.266;2024-03-06T02:27:02;28.38;;;9.50;;
73100;SDS011;61288;53.446;-2.266;2024-03-06T02:29:30;22.27;;;8.60;;
73100;SDS011;61288;53.446;-2.266;2024-03-06T02:31:57;26.13;;;8.43;;
73100;SDS011;61288;53.446;-2.266;2024-03-06T02:34:23;26.70;;;8.77;;
73100;SDS011;61288;53.446;-2.266;2024-03-06T02:36:50;24.35;;;8.98;;
73100;SDS011;61288;53.446;-2.266;2024-03-06T02:39:16;23.42;;;7.85;;
73100;SDS011;61288;53.446;-2.266;2024-03-06T02:41:42;27.67;;;8.68;;
73100;SDS011;61288;53.446;-2.266;2024-03-06T02:44:08;24.00;;;8.00;;
73100;SDS011;61288;53.446;-2.266;2024-03-06T02:46:34;25.73;;;8.65;;
73100;SDS011;61288;53.446;-2.266;2024-03-06T02:49:00;26.13;;;8.73;;
73100;SDS011;61288;53.446;-2.266;2024-03-06T02:51:26;23.65;;;7.47;;
73100;SDS011;61288;53.446;-2.266;2024-03-06T02:53:51;21.80;;;7.90;;
73100;SDS011;61288;53.446;-2.266;2024-03-06T02:56:18;23.42;;;8.63;;
73100;SDS011;61288;53.446;-2.266;2024-03-06T02:58:44;24.25;;;8.48;;
73100;SDS011;61288;53.446;-2.266;2024-03-06T03:01:11;26.20;;;8.80;;
73100;SDS011;61288;53.446;-2.266;2024-03-06T03:03:40;24.48;;;9.00;;
73100;SDS011;61288;53.446;-2.266;2024-03-06T03:06:08;27.88;;;9.32;;
73100;SDS011;61288;53.446;-2.266;2024-03-06T03:08:33;26.85;;;9.07;;
73100;SDS011;61288;53.446;-2.266;2024-03-06T03:10:59;23.00;;;8.07;;
73100;SDS011;61288;53.446;-2.266;2024-03-06T03:13:24;24.48;;;9.10;;
73100;SDS011;61288;53.446;-2.266;2024-03-06T03:15:50;23.38;;;8.07;;
73100;SDS011;61288;53.446;-2.266;2024-03-06T03:18:16;27.10;;;9.38;;
73100;SDS011;61288;53.446;-2.266;2024-03-06T03:20:42;25.50;;;9.23;;
73100;SDS011;61288;53.446;-2.266;2024-03-06T03:23:08;21.70;;;8.60;;
73100;SDS011;61288;53.446;-2.266;2024-03-06T03:25:37;26.52;;;8.88;;
73100;SDS011;61288;53.446;-2.266;2024-03-06T03:28:03;19.98;;;7.10;;
73100;SDS011;61288;53.446;-2.266;2024-03-06T03:30:29;26.40;;;9.23;;
73100;SDS011;61288;53.446;-2.266;2024-03-06T03:32:54;24.17;;;8.27;;
73100;SDS011;61288;53.446;-2.266;2024-03-06T03:35:21;27.92;;;9.63;;
73100;SDS011;61288;53.446;-2.266;2024-03-06T03:37:50;23.30;;;8.43;;
73100;SDS011;61288;53.446;-2.266;2024-03-06T03:40:17;25.85;;;8.68;;
73100;SDS011;61288;53.446;-2.266;2024-03-06T03:42:46;23.85;;;9.05;;
73100;SDS011;61288;53.446;-2.266;2024-03-06T03:45:11;24.48;;;8.52;;
73100;SDS011;61288;53.446;-2.266;2024-03-06T03:47:37;25.77;;;9.02;;
73100;SDS011;61288;53.446;-2.266;2024-03-06T03:50:02;26.55;;;9.00;;
73100;SDS011;61288;53.446;-2.266;2024-03-06T03:52:29;27.20;;;9.40;;
73100;SDS011;61288;53.446;-2.266;2024-03-06T03:54:54;22.05;;;8.88;;
73100;SDS011;61288;53.446;-2.266;2024-03-06T03:57:20;24.17;;;9.55;;
73100;SDS011;61288;53.446;-2.266;2024-03-06T03:59:46;25.85;;;9.45;;
73100;SDS011;61288;53.446;-2.266;2024-03-06T04:02:12;25.35;;;9.13;;
73100;SDS011;61288;53.446;-2.266;2024-03-06T04:04:37;25.20;;;8.68;;
73100;SDS011;61288;53.446;-2.266;2024-03-06T04:07:03;25.60;;;9.27;;
73100;SDS011;61288;53.446;-2.266;2024-03-06T04:09:30;27.83;;;8.90;;
73100;SDS011;61288;53.446;-2.266;2024-03-06T04:12:01;28.85;;;9.32;;
73100;SDS011;61288;53.446;-2.266;2024-03-06T04:14:27;23.05;;;8.43;;
73100;SDS011;61288;53.446;-2.266;2024-03-06T04:16:52;27.95;;;10.15;;
73100;SDS011;61288;53.446;-2.266;2024-03-06T04:19:18;23.40;;;8.55;;
73100;SDS011;61288;53.446;-2.266;2024-03-06T04:21:43;25.80;;;9.32;;
73100;SDS011;61288;53.446;-2.266;2024-03-06T04:24:09;23.42;;;8.10;;
73100;SDS011;61288;53.446;-2.266;2024-03-06T04:26:35;25.98;;;9.75;;
73100;SDS011;61288;53.446;-2.266;2024-03-06T04:29:01;25.45;;;9.25;;
73100;SDS011;61288;53.446;-2.266;2024-03-06T04:31:28;20.23;;;7.63;;
73100;SDS011;61288;53.446;-2.266;2024-03-06T04:33:53;25.10;;;9.38;;
73100;SDS011;61288;53.446;-2.266;2024-03-06T04:36:19;23.85;;;8.65;;
73100;SDS011;61288;53.446;-2.266;2024-03-06T04:38:45;23.50;;;8.90;;
73100;SDS011;61288;53.446;-2.266;2024-03-06T04:41:10;23.95;;;8.40;;
73100;SDS011;61288;53.446;-2.266;2024-03-06T04:43:36;26.52;;;8.98;;
73100;SDS011;61288;53.446;-2.266;2024-03-06T04:46:02;23.08;;;8.85;;
73100;SDS011;61288;53.446;-2.266;2024-03-06T04:48:27;22.48;;;8.02;;
73100;SDS011;61288;53.446;-2.266;2024-03-06T04:50:53;22.00;;;8.38;;
73100;SDS011;61288;53.446;-2.266;2024-03-06T04:53:19;23.00;;;8.15;;
73100;SDS011;61288;53.446;-2.266;2024-03-06T04:55:47;24.00;;;8.75;;
73100;SDS011;61288;53.446;-2.266;2024-03-06T04:58:13;24.35;;;9.43;;
73100;SDS011;61288;53.446;-2.266;2024-03-06T05:00:38;21.60;;;8.55;;
73100;SDS011;61288;53.446;-2.266;2024-03-06T05:03:04;22.52;;;8.20;;
73100;SDS011;61288;53.446;-2.266;2024-03-06T05:05:30;22.70;;;8.98;;
73100;SDS011;61288;53.446;-2.266;2024-03-06T05:07:59;22.25;;;8.52;;
73100;SDS011;61288;53.446;-2.266;2024-03-06T05:10:24;27.67;;;8.75;;
73100;SDS011;61288;53.446;-2.266;2024-03-06T05:12:51;23.30;;;8.43;;
73100;SDS011;61288;53.446;-2.266;2024-03-06T05:15:17;23.27;;;7.82;;
73100;SDS011;61288;53.446;-2.266;2024-03-06T05:17:44;24.02;;;8.52;;
73100;SDS011;61288;53.446;-2.266;2024-03-06T05:20:09;24.00;;;8.75;;
73100;SDS011;61288;53.446;-2.266;2024-03-06T05:22:35;22.77;;;7.90;;
73100;SDS011;61288;53.446;-2.266;2024-03-06T05:25:01;22.70;;;8.35;;
73100;SDS011;61288;53.446;-2.266;2024-03-06T05:27:27;24.27;;;8.85;;
73100;SDS011;61288;53.446;-2.266;2024-03-06T05:29:52;26.25;;;8.48;;
73100;SDS011;61288;53.446;-2.266;2024-03-06T05:32:21;25.20;;;8.55;;
73100;SDS011;61288;53.446;-2.266;2024-03-06T05:34:47;25.08;;;8.80;;
73100;SDS011;61288;53.446;-2.266;2024-03-06T05:37:12;27.77;;;9.55;;
73100;SDS011;61288;53.446;-2.266;2024-03-06T05:39:38;24.35;;;9.00;;
73100;SDS011;61288;53.446;-2.266;2024-03-06T05:42:04;22.23;;;8.48;;
73100;SDS011;61288;53.446;-2.266;2024-03-06T05:44:30;23.02;;;9.00;;
73100;SDS011;61288;53.446;-2.266;2024-03-06T05:46:57;21.67;;;7.95;;
73100;SDS011;61288;53.446;-2.266;2024-03-06T05:49:23;24.30;;;8.43;;
73100;SDS011;61288;53.446;-2.266;2024-03-06T05:51:50;22.13;;;8.27;;
73100;SDS011;61288;53.446;-2.266;2024-03-06T05:54:16;21.63;;;7.75;;
73100;SDS011;61288;53.446;-2.266;2024-03-06T05:56:42;21.67;;;8.23;;
73100;SDS011;61288;53.446;-2.266;2024-03-06T05:59:07;26.25;;;8.77;;
73100;SDS011;61288;53.446;-2.266;2024-03-06T06:01:33;22.02;;;8.32;;
73100;SDS011;61288;53.446;-2.266;2024-03-06T06:04:00;27.38;;;8.55;;
73100;SDS011;61288;53.446;-2.266;2024-03-06T06:06:27;22.83;;;7.80;;
73100;SDS011;61288;53.446;-2.266;2024-03-06T06:08:53;22.77;;;8.43;;
73100;SDS011;61288;53.446;-2.266;2024-03-06T06:11:19;24.88;;;9.02;;
73100;SDS011;61288;53.446;-2.266;2024-03-06T06:13:45;21.73;;;8.23;;
73100;SDS011;61288;53.446;-2.266;2024-03-06T06:16:10;21.23;;;7.65;;
73100;SDS011;61288;53.446;-2.266;2024-03-06T06:18:36;24.58;;;8.45;;
73100;SDS011;61288;53.446;-2.266;2024-03-06T06:21:01;25.65;;;9.07;;
73100;SDS011;61288;53.446;-2.266;2024-03-06T06:23:29;23.73;;;8.45;;
73100;SDS011;61288;53.446;-2.266;2024-03-06T06:25:55;21.52;;;7.60;;
73100;SDS011;61288;53.446;-2.266;2024-03-06T06:28:21;24.67;;;8.48;;
73100;SDS011;61288;53.446;-2.266;2024-03-06T06:30:48;24.45;;;8.82;;
73100;SDS011;61288;53.446;-2.266;2024-03-06T06:33:13;24.75;;;7.50;;
73100;SDS011;61288;53.446;-2.266;2024-03-06T06:35:39;23.75;;;8.20;;
73100;SDS011;61288;53.446;-2.266;2024-03-06T06:38:04;24.13;;;9.05;;
73100;SDS011;61288;53.446;-2.266;2024-03-06T06:40:30;19.98;;;8.50;;
73100;SDS011;61288;53.446;-2.266;2024-03-06T06:42:56;25.27;;;9.52;;
73100;SDS011;61288;53.446;-2.266;2024-03-06T06:45:22;22.42;;;8.10;;
73100;SDS011;61288;53.446;-2.266;2024-03-06T06:47:51;23.67;;;9.60;;
73100;SDS011;61288;53.446;-2.266;2024-03-06T06:50:17;23.67;;;8.30;;
73100;SDS011;61288;53.446;-2.266;2024-03-06T06:52:43;25.50;;;9.70;;
73100;SDS011;61288;53.446;-2.266;2024-03-06T06:55:09;20.42;;;8.05;;
73100;SDS011;61288;53.446;-2.266;2024-03-06T06:57:36;25.30;;;9.65;;
73100;SDS011;61288;53.446;-2.266;2024-03-06T07:00:02;25.33;;;8.98;;
73100;SDS011;61288;53.446;-2.266;2024-03-06T07:02:44;24.67;;;8.38;;
73100;SDS011;61288;53.446;-2.266;2024-03-06T07:05:10;27.45;;;9.02;;
73100;SDS011;61288;53.446;-2.266;2024-03-06T07:07:37;26.50;;;9.18;;
73100;SDS011;61288;53.446;-2.266;2024-03-06T07:10:03;27.73;;;9.63;;
73100;SDS011;61288;53.446;-2.266;2024-03-06T07:12:30;28.05;;;9.18;;
73100;SDS011;61288;53.446;-2.266;2024-03-06T07:14:56;32.20;;;10.27;;
73100;SDS011;61288;53.446;-2.266;2024-03-06T07:17:22;31.45;;;10.70;;
73100;SDS011;61288;53.446;-2.266;2024-03-06T07:19:47;32.40;;;10.68;;
73100;SDS011;61288;53.446;-2.266;2024-03-06T07:22:13;33.20;;;10.15;;
73100;SDS011;61288;53.446;-2.266;2024-03-06T07:24:39;26.90;;;9.82;;
73100;SDS011;61288;53.446;-2.266;2024-03-06T07:27:07;31.65;;;10.73;;
73100;SDS011;61288;53.446;-2.266;2024-03-06T07:29:37;34.63;;;11.35;;
73100;SDS011;61288;53.446;-2.266;2024-03-06T07:32:02;33.17;;;11.45;;
73100;SDS011;61288;53.446;-2.266;2024-03-06T07:34:30;33.13;;;10.23;;
73100;SDS011;61288;53.446;-2.266;2024-03-06T07:36:56;36.75;;;12.02;;
73100;SDS011;61288;53.446;-2.266;2024-03-06T07:39:24;36.53;;;12.27;;
73100;SDS011;61288;53.446;-2.266;2024-03-06T07:41:51;40.97;;;12.43;;
73100;SDS011;61288;53.446;-2.266;2024-03-06T07:44:17;42.00;;;13.05;;
73100;SDS011;61288;53.446;-2.266;2024-03-06T07:46:43;41.80;;;12.55;;
73100;SDS011;61288;53.446;-2.266;2024-03-06T07:49:09;35.72;;;13.35;;
73100;SDS011;61288;53.446;-2.266;2024-03-06T07:51:34;38.15;;;12.20;;
73100;SDS011;61288;53.446;-2.266;2024-03-06T07:54:01;36.88;;;12.57;;
73100;SDS011;61288;53.446;-2.266;2024-03-06T07:56:29;38.38;;;11.82;;
73100;SDS011;61288;53.446;-2.266;2024-03-06T07:58:54;37.67;;;12.02;;
73100;SDS011;61288;53.446;-2.266;2024-03-06T08:01:20;37.35;;;12.85;;
73100;SDS011;61288;53.446;-2.266;2024-03-06T08:03:46;36.00;;;11.73;;
73100;SDS011;61288;53.446;-2.266;2024-03-06T08:06:12;38.35;;;11.95;;
73100;SDS011;61288;53.446;-2.266;2024-03-06T08:08:41;41.63;;;13.80;;
73100;SDS011;61288;53.446;-2.266;2024-03-06T08:11:09;36.63;;;12.10;;
73100;SDS011;61288;53.446;-2.266;2024-03-06T08:13:36;40.55;;;12.50;;
73100;SDS011;61288;53.446;-2.266;2024-03-06T08:16:02;39.90;;;12.93;;
73100;SDS011;61288;53.446;-2.266;2024-03-06T08:18:29;40.90;;;13.65;;
73100;SDS011;61288;53.446;-2.266;2024-03-06T08:20:56;42.50;;;13.00;;
73100;SDS011;61288;53.446;-2.266;2024-03-06T08:23:22;50.22;;;13.02;;
73100;SDS011;61288;53.446;-2.266;2024-03-06T08:25:49;40.33;;;13.20;;
73100;SDS011;61288;53.446;-2.266;2024-03-06T08:28:14;45.45;;;13.38;;
73100;SDS011;61288;53.446;-2.266;2024-03-06T08:30:40;39.40;;;12.48;;
73100;SDS011;61288;53.446;-2.266;2024-03-06T08:33:06;40.00;;;12.45;;
73100;SDS011;61288;53.446;-2.266;2024-03-06T08:35:33;43.78;;;12.77;;
73100;SDS011;61288;53.446;-2.266;2024-03-06T08:37:59;37.10;;;13.02;;
73100;SDS011;61288;53.446;-2.266;2024-03-06T08:40:25;39.22;;;12.15;;
73100;SDS011;61288;53.446;-2.266;2024-03-06T08:42:52;34.40;;;12.45;;
73100;SDS011;61288;53.446;-2.266;2024-03-06T08:45:17;33.38;;;11.82;;
73100;SDS011;61288;53.446;-2.266;2024-03-06T08:47:45;30.17;;;10.55;;
73100;SDS011;61288;53.446;-2.266;2024-03-06T08:50:13;33.28;;;11.50;;
73100;SDS011;61288;53.446;-2.266;2024-03-06T08:52:39;32.45;;;12.07;;
73100;SDS011;61288;53.446;-2.266;2024-03-06T08:55:06;28.83;;;10.57;;
73100;SDS011;61288;53.446;-2.266;2024-03-06T08:57:32;33.70;;;11.73;;
73100;SDS011;61288;53.446;-2.266;2024-03-06T08:59:58;36.13;;;11.52;;
73100;SDS011;61288;53.446;-2.266;2024-03-06T09:02:24;29.27;;;11.15;;
73100;SDS011;61288;53.446;-2.266;2024-03-06T09:04:50;26.05;;;10.55;;
73100;SDS011;61288;53.446;-2.266;2024-03-06T09:07:20;28.60;;;11.88;;
73100;SDS011;61288;53.446;-2.266;2024-03-06T09:09:48;27.70;;;11.52;;
73100;SDS011;61288;53.446;-2.266;2024-03-06T09:12:15;28.40;;;11.85;;
73100;SDS011;61288;53.446;-2.266;2024-03-06T09:14:41;28.83;;;11.38;;
73100;SDS011;61288;53.446;-2.266;2024-03-06T09:17:07;34.17;;;13.05;;
73100;SDS011;61288;53.446;-2.266;2024-03-06T09:19:38;33.03;;;12.23;;
73100;SDS011;61288;53.446;-2.266;2024-03-06T09:22:03;31.17;;;12.75;;
73100;SDS011;61288;53.446;-2.266;2024-03-06T09:24:29;32.20;;;12.70;;
73100;SDS011;61288;53.446;-2.266;2024-03-06T09:26:55;35.60;;;12.23;;
73100;SDS011;61288;53.446;-2.266;2024-03-06T09:29:20;29.13;;;12.60;;
73100;SDS011;61288;53.446;-2.266;2024-03-06T09:31:46;32.15;;;12.10;;
73100;SDS011;61288;53.446;-2.266;2024-03-06T09:34:13;29.58;;;11.63;;
73100;SDS011;61288;53.446;-2.266;2024-03-06T09:36:40;29.17;;;11.70;;
73100;SDS011;61288;53.446;-2.266;2024-03-06T09:39:13;36.88;;;12.98;;
73100;SDS011;61288;53.446;-2.266;2024-03-06T09:41:44;31.17;;;11.25;;
73100;SDS011;61288;53.446;-2.266;2024-03-06T09:44:11;36.55;;;12.50;;
73100;SDS011;61288;53.446;-2.266;2024-03-06T09:46:37;30.42;;;12.02;;
73100;SDS011;61288;53.446;-2.266;2024-03-06T09:49:03;26.90;;;11.63;;
73100;SDS011;61288;53.446;-2.266;2024-03-06T09:51:29;26.40;;;10.98;;
73100;SDS011;61288;53.446;-2.266;2024-03-06T09:53:55;24.33;;;10.45;;
73100;SDS011;61288;53.446;-2.266;2024-03-06T09:56:21;36.97;;;11.90;;
73100;SDS011;61288;53.446;-2.266;2024-03-06T09:58:47;26.33;;;10.98;;
73100;SDS011;61288;53.446;-2.266;2024-03-06T10:01:12;30.58;;;11.85;;
73100;SDS011;61288;53.446;-2.266;2024-03-06T10:03:39;28.90;;;11.82;;
73100;SDS011;61288;53.446;-2.266;2024-03-06T10:06:08;24.23;;;10.93;;
73100;SDS011;61288;53.446;-2.266;2024-03-06T10:08:35;26.15;;;11.18;;
73100;SDS011;61288;53.446;-2.266;2024-03-06T10:11:02;26.17;;;10.38;;
73100;SDS011;61288;53.446;-2.266;2024-03-06T10:13:28;27.60;;;10.88;;
73100;SDS011;61288;53.446;-2.266;2024-03-06T10:15:58;25.45;;;10.93;;
73100;SDS011;61288;53.446;-2.266;2024-03-06T10:18:26;26.27;;;10.88;;
73100;SDS011;61288;53.446;-2.266;2024-03-06T10:20:53;27.60;;;11.60;;
73100;SDS011;61288;53.446;-2.266;2024-03-06T10:23:19;25.60;;;10.90;;
73100;SDS011;61288;53.446;-2.266;2024-03-06T10:25:46;28.25;;;10.48;;
73100;SDS011;61288;53.446;-2.266;2024-03-06T10:28:19;26.25;;;10.68;;
73100;SDS011;61288;53.446;-2.266;2024-03-06T10:33:12;30.05;;;10.93;;
73100;SDS011;61288;53.446;-2.266;2024-03-06T10:35:40;30.48;;;12.35;;
73100;SDS011;61288;53.446;-2.266;2024-03-06T10:38:13;28.75;;;12.23;;
73100;SDS011;61288;53.446;-2.266;2024-03-06T10:40:42;32.03;;;11.90;;
73100;SDS011;61288;53.446;-2.266;2024-03-06T10:43:12;26.38;;;10.50;;
73100;SDS011;61288;53.446;-2.266;2024-03-06T10:45:45;27.00;;;12.10;;
73100;SDS011;61288;53.446;-2.266;2024-03-06T10:48:28;27.83;;;12.02;;
73100;SDS011;61288;53.446;-2.266;2024-03-06T10:50:54;27.70;;;11.80;;
73100;SDS011;61288;53.446;-2.266;2024-03-06T10:53:20;29.25;;;12.02;;
73100;SDS011;61288;53.446;-2.266;2024-03-06T10:55:48;35.33;;;12.10;;
73100;SDS011;61288;53.446;-2.266;2024-03-06T10:58:18;28.17;;;10.70;;
73100;SDS011;61288;53.446;-2.266;2024-03-06T11:00:45;33.58;;;11.75;;
73100;SDS011;61288;53.446;-2.266;2024-03-06T11:03:12;24.35;;;10.60;;
73100;SDS011;61288;53.446;-2.266;2024-03-06T11:05:45;22.35;;;10.05;;
73100;SDS011;61288;53.446;-2.266;2024-03-06T11:08:12;24.48;;;9.60;;
73100;SDS011;61288;53.446;-2.266;2024-03-06T11:10:40;28.33;;;10.65;;
73100;SDS011;61288;53.446;-2.266;2024-03-06T11:13:25;25.38;;;10.63;;
73100;SDS011;61288;53.446;-2.266;2024-03-06T11:15:52;24.45;;;10.15;;
73100;SDS011;61288;53.446;-2.266;2024-03-06T11:23:29;23.30;;;10.10;;
73100;SDS011;61288;53.446;-2.266;2024-03-06T11:26:03;22.88;;;9.32;;
73100;SDS011;61288;53.446;-2.266;2024-03-06T11:28:30;19.77;;;8.43;;
73100;SDS011;61288;53.446;-2.266;2024-03-06T11:30:57;21.52;;;8.25;;
73100;SDS011;61288;53.446;-2.266;2024-03-06T11:36:15;24.20;;;8.32;;
73100;SDS011;61288;53.446;-2.266;2024-03-06T11:41:22;21.63;;;8.63;;
73100;SDS011;61288;53.446;-2.266;2024-03-06T11:43:49;20.63;;;8.38;;
73100;SDS011;61288;53.446;-2.266;2024-03-06T11:46:40;20.42;;;8.10;;
73100;SDS011;61288;53.446;-2.266;2024-03-06T11:49:14;20.95;;;7.93;;
73100;SDS011;61288;53.446;-2.266;2024-03-06T11:51:41;20.08;;;8.57;;
73100;SDS011;61288;53.446;-2.266;2024-03-06T11:54:07;21.08;;;7.57;;
73100;SDS011;61288;53.446;-2.266;2024-03-06T11:56:32;21.35;;;8.18;;
73100;SDS011;61288;53.446;-2.266;2024-03-06T11:58:58;20.70;;;7.75;;
73100;SDS011;61288;53.446;-2.266;2024-03-06T12:01:24;19.52;;;8.18;;
73100;SDS011;61288;53.446;-2.266;2024-03-06T12:03:49;19.25;;;7.82;;
73100;SDS011;61288;53.446;-2.266;2024-03-06T12:06:15;18.60;;;7.38;;
73100;SDS011;61288;53.446;-2.266;2024-03-06T12:08:42;20.52;;;8.13;;
73100;SDS011;61288;53.446;-2.266;2024-03-06T12:11:07;21.45;;;8.25;;
73100;SDS011;61288;53.446;-2.266;2024-03-06T12:13:33;22.02;;;8.63;;
73100;SDS011;61288;53.446;-2.266;2024-03-06T12:16:03;20.67;;;8.63;;
73100;SDS011;61288;53.446;-2.266;2024-03-06T12:18:30;19.95;;;8.32;;
73100;SDS011;61288;53.446;-2.266;2024-03-06T12:20:55;20.85;;;8.38;;
73100;SDS011;61288;53.446;-2.266;2024-03-06T12:23:21;18.50;;;7.35;;
73100;SDS011;61288;53.446;-2.266;2024-03-06T12:26:04;20.77;;;8.27;;
73100;SDS011;61288;53.446;-2.266;2024-03-06T12:28:30;20.58;;;8.13;;
73100;SDS011;61288;53.446;-2.266;2024-03-06T12:31:01;20.35;;;8.52;;
73100;SDS011;61288;53.446;-2.266;2024-03-06T12:33:27;21.90;;;7.90;;
73100;SDS011;61288;53.446;-2.266;2024-03-06T12:36:03;20.70;;;8.05;;
73100;SDS011;61288;53.446;-2.266;2024-03-06T12:38:35;21.80;;;8.00;;
73100;SDS011;61288;53.446;-2.266;2024-03-06T12:41:02;20.23;;;8.35;;
73100;SDS011;61288;53.446;-2.266;2024-03-06T12:43:29;19.15;;;7.53;;
73100;SDS011;61288;53.446;-2.266;2024-03-06T12:45:54;19.67;;;8.32;;
73100;SDS011;61288;53.446;-2.266;2024-03-06T12:48:22;20.25;;;7.38;;
73100;SDS011;61288;53.446;-2.266;2024-03-06T12:50:48;21.48;;;7.95;;
73100;SDS011;61288;53.446;-2.266;2024-03-06T12:53:25;18.95;;;7.88;;
73100;SDS011;61288;53.446;-2.266;2024-03-06T12:55:52;17.70;;;6.72;;
73100;SDS011;61288;53.446;-2.266;2024-03-06T12:58:18;19.48;;;7.03;;
73100;SDS011;61288;53.446;-2.266;2024-03-06T13:00:43;21.20;;;8.38;;
73100;SDS011;61288;53.446;-2.266;2024-03-06T13:03:09;19.30;;;8.35;;
73100;SDS011;61288;53.446;-2.266;2024-03-06T13:05:38;21.60;;;9.77;;
73100;SDS011;61288;53.446;-2.266;2024-03-06T13:08:04;20.80;;;7.90;;
73100;SDS011;61288;53.446;-2.266;2024-03-06T13:10:30;20.65;;;8.68;;
73100;SDS011;61288;53.446;-2.266;2024-03-06T13:12:55;16.40;;;7.18;;
73100;SDS011;61288;53.446;-2.266;2024-03-06T13:15:20;16.17;;;6.57;;
73100;SDS011;61288;53.446;-2.266;2024-03-06T13:17:46;18.13;;;6.70;;
73100;SDS011;61288;53.446;-2.266;2024-03-06T13:20:11;16.80;;;6.50;;
73100;SDS011;61288;53.446;-2.266;2024-03-06T13:22:37;16.75;;;6.50;;
73100;SDS011;61288;53.446;-2.266;2024-03-06T13:25:03;19.13;;;7.38;;
73100;SDS011;61288;53.446;-2.266;2024-03-06T13:27:29;16.88;;;6.90;;
73100;SDS011;61288;53.446;-2.266;2024-03-06T13:29:55;17.38;;;6.40;;
73100;SDS011;61288;53.446;-2.266;2024-03-06T13:32:21;17.95;;;7.57;;
73100;SDS011;61288;53.446;-2.266;2024-03-06T13:34:47;16.58;;;6.43;;
73100;SDS011;61288;53.446;-2.266;2024-03-06T13:37:14;17.08;;;6.20;;
73100;SDS011;61288;53.446;-2.266;2024-03-06T13:39:43;17.67;;;6.63;;
73100;SDS011;61288;53.446;-2.266;2024-03-06T13:42:08;18.17;;;6.63;;
73100;SDS011;61288;53.446;-2.266;2024-03-06T13:44:35;18.13;;;6.45;;
73100;SDS011;61288;53.446;-2.266;2024-03-06T13:47:01;19.45;;;7.00;;
73100;SDS011;61288;53.446;-2.266;2024-03-06T13:49:37;19.58;;;6.90;;
73100;SDS011;61288;53.446;-2.266;2024-03-06T13:52:04;17.10;;;6.72;;
73100;SDS011;61288;53.446;-2.266;2024-03-06T13:54:30;17.45;;;6.13;;
73100;SDS011;61288;53.446;-2.266;2024-03-06T13:56:57;18.45;;;6.78;;
73100;SDS011;61288;53.446;-2.266;2024-03-06T13:59:33;17.88;;;6.68;;
73100;SDS011;61288;53.446;-2.266;2024-03-06T14:01:59;18.13;;;6.25;;
73100;SDS011;61288;53.446;-2.266;2024-03-06T14:04:28;16.67;;;6.43;;
73100;SDS011;61288;53.446;-2.266;2024-03-06T14:06:55;18.00;;;6.65;;
73100;SDS011;61288;53.446;-2.266;2024-03-06T14:09:23;18.55;;;7.28;;
73100;SDS011;61288;53.446;-2.266;2024-03-06T14:11:50;18.38;;;7.28;;
73100;SDS011;61288;53.446;-2.266;2024-03-06T14:14:16;18.30;;;6.13;;
73100;SDS011;61288;53.446;-2.266;2024-03-06T14:16:47;16.33;;;6.05;;
73100;SDS011;61288;53.446;-2.266;2024-03-06T14:19:13;17.10;;;6.57;;
73100;SDS011;61288;53.446;-2.266;2024-03-06T14:21:39;18.85;;;6.78;;
73100;SDS011;61288;53.446;-2.266;2024-03-06T14:24:04;17.10;;;6.47;;
73100;SDS011;61288;53.446;-2.266;2024-03-06T14:26:34;17.25;;;6.72;;
73100;SDS011;61288;53.446;-2.266;2024-03-06T14:29:00;18.38;;;6.90;;